Terminal Aerodrome Forecast
Issued by NWS Sioux Falls, SD

Home | Current Version | Previous Version | Text Only | Print | Product List | Glossary On
Versions: 1 2 3 4 5 6 7 8 9 10 11 12 13 14 15
000
FTUS43 KFSD 231120
TAFHON
TAF
KHON 231120Z 2312/2412 30022G29KT P6SM BKN200
     FM231700 32028G41KT P6SM BKN080
     FM232300 33023G31KT P6SM BKN060
     FM240100 33017G25KT P6SM SCT100=

USA.gov is the U.S. government's official web portal to all federal, state and local government web resources and services.